createdAt,value
2022-12-08T00:01:28.585Z,100260.81
2022-12-08T00:03:56.475Z,100247.94
2022-12-08T00:06:50.075Z,100248.72
2022-12-08T00:09:23.488Z,100242.63
2022-12-08T00:12:26.675Z,100238.69
2022-12-08T00:14:54.551Z,100225.03
2022-12-08T00:17:21.213Z,100232.94
2022-12-08T00:19:47.761Z,100235.75
2022-12-08T00:22:15.169Z,100228.06
2022-12-08T00:24:44.906Z,100232.50
2022-12-08T00:27:14.823Z,100222.88
2022-12-08T00:29:44.061Z,100220.38
2022-12-08T00:32:10.751Z,100211.91
2022-12-08T00:34:37.363Z,100217.56
2022-12-08T00:37:03.929Z,100210.69
2022-12-08T00:39:30.618Z,100199.06
2022-12-08T00:42:12.318Z,100207.41
2022-12-08T00:44:39.916Z,100207.41
2022-12-08T00:47:06.538Z,100197.72
2022-12-08T00:49:33.219Z,100188.09
2022-12-08T00:51:59.872Z,100186.88
2022-12-08T00:54:26.873Z,100187.19
2022-12-08T00:56:53.551Z,100183.16
2022-12-08T00:59:20.017Z,100184.38
2022-12-08T01:01:47.689Z,100179.06
2022-12-08T01:04:16.719Z,100177.06
2022-12-08T01:06:44.403Z,100180.66
2022-12-08T01:09:12.468Z,100181.44
2022-12-08T01:11:39.188Z,100187.91
2022-12-08T01:14:05.667Z,100183.81
2022-12-08T01:16:35.235Z,100175.34
2022-12-08T01:19:02.123Z,100180.22
2022-12-08T01:21:29.345Z,100171.75
2022-12-08T01:23:57.927Z,100174.09
2022-12-08T01:26:24.500Z,100172.06
2022-12-08T01:28:51.075Z,100170.03
2022-12-08T01:31:20.584Z,100174.44
2022-12-08T01:33:48.082Z,100169.13
2022-12-08T01:36:26.714Z,100167.19
2022-12-08T01:38:54.971Z,100170.38
2022-12-08T01:41:24.119Z,100169.13
2022-12-08T01:44:02.419Z,100166.31
2022-12-08T01:46:31.913Z,100171.63
2022-12-08T01:49:15.163Z,100169.13
2022-12-08T01:52:14.230Z,100159.88
2022-12-08T01:54:49.275Z,100166.66
2022-12-08T01:57:25.498Z,100153.78
2022-12-08T02:00:00.637Z,100158.19
2022-12-08T02:02:34.281Z,100161.00
2022-12-08T02:05:02.239Z,100150.94
2022-12-08T02:07:29.389Z,100158.50
2022-12-08T02:09:56.393Z,100148.00
2022-12-08T02:12:23.001Z,100144.72
2022-12-08T02:14:49.683Z,100151.63
2022-12-08T02:17:38.956Z,100143.50
2022-12-08T02:20:16.887Z,100135.81
2022-12-08T02:23:07.929Z,100136.59
2022-12-08T02:25:55.676Z,100132.97
2022-12-08T02:28:48.203Z,100133.75
2022-12-08T02:31:51.768Z,100132.19
2022-12-08T02:34:34.442Z,100127.00
2022-12-08T02:37:19.403Z,100126.56
2022-12-08T02:40:12.418Z,100123.72
2022-12-08T02:42:58.649Z,100108.34
2022-12-08T02:45:33.393Z,100107.13
2022-12-08T02:48:00.485Z,100105.19
2022-12-08T02:50:28.615Z,100107.44
2022-12-08T02:52:55.261Z,100101.47
2022-12-08T02:55:47.930Z,100102.59
2022-12-08T02:58:35.305Z,100103.06
2022-12-08T03:01:24.995Z,100101.78
2022-12-08T03:04:13.401Z,100087.66
2022-12-08T03:06:55.349Z,100087.22
2022-12-08T03:09:29.745Z,100083.28
2022-12-08T03:12:13.908Z,100088.81
2022-12-08T03:14:45.544Z,100083.94
2022-12-08T03:17:14.428Z,100077.97
2022-12-08T03:19:43.016Z,100073.44
2022-12-08T03:22:12.129Z,100066.22
2022-12-08T03:24:41.908Z,100065.31
2022-12-08T03:27:16.645Z,100061.25
2022-12-08T03:29:43.610Z,100058.88
2022-12-08T03:32:39.346Z,100053.22
2022-12-08T03:35:11.974Z,100057.16
2022-12-08T03:37:39.956Z,100057.97
2022-12-08T03:40:09.890Z,100057.16
2022-12-08T03:42:36.369Z,100053.09
2022-12-08T03:45:04.077Z,100058.75
2022-12-08T03:47:30.806Z,100056.38
2022-12-08T03:49:57.319Z,100051.84
2022-12-08T03:52:23.951Z,100055.94
2022-12-08T03:54:50.454Z,100053.09
2022-12-08T03:57:17.308Z,100049.81
2022-12-08T03:59:43.813Z,100052.19
2022-12-08T04:02:10.402Z,100044.94
2022-12-08T04:04:36.917Z,100039.63
2022-12-08T04:07:03.432Z,100031.28
2022-12-08T04:09:30.054Z,100032.88
2022-12-08T04:11:56.541Z,100029.59
2022-12-08T04:14:23.051Z,100028.34
2022-12-08T04:16:49.546Z,100026.31
2022-12-08T04:19:16.025Z,100025.97
2022-12-08T04:21:42.569Z,100022.22
2022-12-08T04:24:09.403Z,100017.84
2022-12-08T04:26:35.916Z,100023.81
2022-12-08T04:29:02.460Z,100022.22
2022-12-08T04:31:29.065Z,100019.84
2022-12-08T04:33:55.745Z,100023.81
2022-12-08T04:36:22.229Z,100030.25
2022-12-08T04:38:48.795Z,100025.06
2022-12-08T04:41:15.333Z,100029.47
2022-12-08T04:43:44.273Z,100031.03
2022-12-08T04:46:11.340Z,100023.81
2022-12-08T04:48:38.490Z,100023.81
2022-12-08T04:51:05.180Z,100016.94
2022-12-08T04:53:32.318Z,100017.72
2022-12-08T04:55:59.110Z,100021.75
2022-12-08T04:58:25.657Z,100021.31
2022-12-08T05:00:52.280Z,100021.31
2022-12-08T05:03:22.546Z,100028.53
2022-12-08T05:05:53.309Z,100019.75
2022-12-08T05:08:19.973Z,100023.81
2022-12-08T05:10:46.597Z,100031.81
2022-12-08T05:13:13.061Z,100025.41
2022-12-08T05:15:39.573Z,100026.97
2022-12-08T05:18:07.223Z,100015.00
2022-12-08T05:20:34.311Z,100022.91
2022-12-08T05:23:00.883Z,100019.75
2022-12-08T05:25:27.877Z,100018.47
2022-12-08T05:28:06.245Z,100020.53
2022-12-08T05:30:38.130Z,100016.94
2022-12-08T05:33:04.764Z,100012.50
2022-12-08T05:35:31.353Z,100016.94
2022-12-08T05:37:57.878Z,100012.06
2022-12-08T05:40:24.363Z,100005.28
2022-12-08T05:42:50.908Z,100004.03
2022-12-08T05:45:17.445Z,100008.00
2022-12-08T05:47:44.051Z,100004.81
2022-12-08T05:50:11.076Z,100011.28
2022-12-08T05:52:37.614Z,100008.56
2022-12-08T05:55:04.322Z,100008.44
2022-12-08T05:57:30.809Z,100006.88
2022-12-08T05:59:59.486Z,100002.81
2022-12-08T06:02:26.816Z,100001.69
2022-12-08T06:04:53.552Z,99995.25
2022-12-08T06:07:20.351Z,99988.34
2022-12-08T06:09:47.062Z,99989.91
2022-12-08T06:12:13.750Z,99988.00
2022-12-08T06:14:40.630Z,99992.41
2022-12-08T06:17:07.297Z,99990.06
2022-12-08T06:19:33.828Z,100002.44
2022-12-08T06:22:00.508Z,99996.94
2022-12-08T06:24:27.451Z,100012.19
2022-12-08T06:26:53.950Z,100015.00
2022-12-08T06:29:20.551Z,100007.78
2022-12-08T06:31:47.141Z,100007.00
2022-12-08T06:34:13.917Z,100000.53
2022-12-08T06:36:40.429Z,100001.81
2022-12-08T06:39:06.943Z,100007.91
2022-12-08T06:41:53.537Z,100006.19
2022-12-08T06:44:20.160Z,100007.13
2022-12-08T06:46:46.721Z,100007.13
2022-12-08T06:49:13.236Z,100011.19
2022-12-08T06:51:39.749Z,100004.75
2022-12-08T06:54:06.295Z,100009.47
2022-12-08T06:56:33.125Z,100012.78
2022-12-08T06:58:59.625Z,100019.22
2022-12-08T07:01:26.248Z,100023.28
2022-12-08T07:03:52.796Z,100025.31
2022-12-08T07:06:22.844Z,100016.84
2022-12-08T07:08:49.793Z,100017.63
2022-12-08T07:11:21.451Z,100024.06
2022-12-08T07:13:49.643Z,100020.91
2022-12-08T07:16:16.339Z,100026.56
2022-12-08T07:18:44.069Z,100027.69
2022-12-08T07:21:14.858Z,100034.56
2022-12-08T07:23:42.954Z,100029.25
2022-12-08T07:26:11.846Z,100035.03
2022-12-08T07:28:41.302Z,100036.94
2022-12-08T07:31:16.314Z,100024.63
2022-12-08T07:33:43.267Z,100027.47
2022-12-08T07:36:10.121Z,100037.38
2022-12-08T07:38:36.645Z,100044.31
2022-12-08T07:41:03.256Z,100044.31
2022-12-08T07:43:29.799Z,100047.13
2022-12-08T07:45:56.422Z,100033.13
2022-12-08T07:48:22.958Z,100042.72
2022-12-08T07:50:49.570Z,100041.47
2022-12-08T07:53:16.125Z,100035.84
2022-12-08T07:55:43.691Z,100043.50
2022-12-08T07:58:10.796Z,100033.00
2022-12-08T08:00:37.476Z,100025.78
2022-12-08T08:03:04.204Z,100028.13
2022-12-08T08:05:30.750Z,100023.72
2022-12-08T08:07:57.342Z,100034.69
2022-12-08T08:10:23.979Z,100042.72
2022-12-08T08:12:50.564Z,100041.94
2022-12-08T08:15:17.889Z,100046.78
2022-12-08T08:17:44.546Z,100049.41
2022-12-08T08:20:11.609Z,100054.47
2022-12-08T08:22:38.094Z,100063.72
2022-12-08T08:25:05.648Z,100071.41
2022-12-08T08:27:32.197Z,100062.94
2022-12-08T08:29:58.822Z,100073.00
2022-12-08T08:32:25.445Z,100059.78
2022-12-08T08:34:52.134Z,100075.47
2022-12-08T08:37:18.867Z,100070.19
2022-12-08T08:39:45.400Z,100073.78
2022-12-08T08:42:11.943Z,100068.59
2022-12-08T08:44:39.031Z,100066.53
2022-12-08T08:47:05.836Z,100064.19
2022-12-08T08:49:32.493Z,100070.19
2022-12-08T08:51:59.199Z,100067.00
2022-12-08T08:54:25.779Z,100063.25
2022-12-08T08:56:52.710Z,100060.44
2022-12-08T08:59:19.317Z,100059.19
2022-12-08T09:01:45.964Z,100066.09
2022-12-08T09:04:12.676Z,100058.88
2022-12-08T09:06:39.357Z,100065.63
2022-12-08T09:09:06.333Z,100058.88
2022-12-08T09:11:33.186Z,100060.31
2022-12-08T09:13:59.733Z,100063.63
2022-12-08T09:16:26.486Z,100071.59
2022-12-08T09:18:53.116Z,100068.31
2022-12-08T09:21:23.248Z,100059.53
2022-12-08T09:23:55.069Z,100065.50
2022-12-08T09:26:22.502Z,100057.03
2022-12-08T09:28:50.622Z,100049.00
2022-12-08T09:31:18.972Z,100071.50
2022-12-08T09:33:47.471Z,100065.84
2022-12-08T09:36:14.596Z,100057.03
2022-12-08T09:38:41.206Z,100065.84
2022-12-08T09:41:17.316Z,100071.50
2022-12-08T09:43:58.448Z,100073.88
2022-12-08T09:46:28.684Z,100074.31
2022-12-08T09:48:58.995Z,100070.25
2022-12-08T09:51:28.989Z,100067.75
2022-12-08T09:53:59.982Z,100069.78
2022-12-08T09:56:30.673Z,100069.78
2022-12-08T09:59:02.302Z,100062.13
2022-12-08T10:01:31.690Z,100057.25
2022-12-08T10:03:59.111Z,100051.16
2022-12-08T10:06:47.098Z,100061.66
2022-12-08T10:09:31.876Z,100054.75
2022-12-08T10:12:19.735Z,100056.78
2022-12-08T10:15:10.612Z,100058.38
2022-12-08T10:17:48.688Z,100049.09
2022-12-08T10:20:18.112Z,100045.81
2022-12-08T10:22:51.978Z,100046.28
2022-12-08T10:25:28.517Z,100051.78
2022-12-08T10:27:55.185Z,100052.59
2022-12-08T10:30:22.314Z,100050.56
2022-12-08T10:32:50.972Z,100048.19
2022-12-08T10:35:19.397Z,100059.34
2022-12-08T10:38:01.669Z,100059.03
2022-12-08T10:40:39.123Z,100056.53
2022-12-08T10:43:17.849Z,100054.97
2022-12-08T10:45:44.992Z,100058.25
2022-12-08T10:48:16.958Z,100045.81
2022-12-08T10:50:53.981Z,100049.31
2022-12-08T10:53:23.992Z,100046.50
2022-12-08T10:56:02.631Z,100052.16
2022-12-08T10:59:00.405Z,100050.88
2022-12-08T11:01:34.273Z,100048.50
2022-12-08T11:04:02.157Z,100054.28
2022-12-08T11:06:28.574Z,100063.91
2022-12-08T11:08:56.312Z,100061.41
2022-12-08T11:11:38.920Z,100060.63
2022-12-08T11:14:14.093Z,100059.69
2022-12-08T11:16:43.052Z,100066.91
2022-12-08T11:19:15.949Z,100063.63
2022-12-08T11:21:43.812Z,100067.59
2022-12-08T11:24:37.616Z,100063.97
2022-12-08T11:27:06.378Z,100065.09
2022-12-08T11:29:35.257Z,100062.59
2022-12-08T11:32:11.878Z,100058.53
2022-12-08T11:34:46.266Z,100064.50
2022-12-08T11:37:35.245Z,100069.69
2022-12-08T11:40:16.319Z,100058.38
2022-12-08T11:43:00.959Z,100056.38
2022-12-08T11:45:32.059Z,100059.06
2022-12-08T11:48:09.768Z,100064.72
2022-12-08T11:50:49.376Z,100058.25
2022-12-08T11:53:24.914Z,100067.06
2022-12-08T11:55:57.549Z,100051.69
2022-12-08T11:58:34.852Z,100056.56
2022-12-08T12:01:01.690Z,100053.28
2022-12-08T12:03:35.792Z,100055.63
2022-12-08T12:06:54.365Z,100059.69
2022-12-08T12:09:25.040Z,100064.91
2022-12-08T12:12:25.656Z,100071.81
2022-12-08T12:15:16.266Z,100063.34
2022-12-08T12:18:08.070Z,100073.06
2022-12-08T12:20:46.773Z,100065.81
2022-12-08T12:23:24.086Z,100079.03
2022-12-08T12:26:02.417Z,100069.00
2022-12-08T12:29:02.954Z,100080.28
2022-12-08T12:31:33.542Z,100070.09
2022-12-08T12:34:25.558Z,100069.31
2022-12-08T12:36:57.320Z,100069.97
2022-12-08T12:39:29.228Z,100065.25
2022-12-08T12:42:01.374Z,100063.53
2022-12-08T12:44:27.796Z,100073.13
2022-12-08T12:47:00.753Z,100076.28
2022-12-08T12:49:39.570Z,100069.38
2022-12-08T12:52:15.390Z,100074.56
2022-12-08T12:55:11.158Z,100075.03
2022-12-08T12:57:40.099Z,100073.31
2022-12-08T13:00:09.898Z,100072.22
2022-12-08T13:02:36.745Z,100084.16
2022-12-08T13:05:10.824Z,100076.94
2022-12-08T13:07:43.462Z,100081.94
2022-12-08T13:10:16.017Z,100080.22
2022-12-08T13:12:45.194Z,100077.88
2022-12-08T13:15:19.801Z,100079.09
2022-12-08T13:17:49.097Z,100081.94
2022-12-08T13:20:21.825Z,100086.34
2022-12-08T13:22:50.372Z,100090.41
2022-12-08T13:25:38.715Z,100086.00
2022-12-08T13:28:24.874Z,100084.44
2022-12-08T13:30:59.496Z,100082.84
2022-12-08T13:33:40.979Z,100082.19
2022-12-08T13:36:22.271Z,100083.75
2022-12-08T13:38:55.862Z,100092.59
2022-12-08T13:41:29.048Z,100087.72
2022-12-08T13:45:03.581Z,100102.31
2022-12-08T13:47:24.617Z,100093.06
2022-12-08T13:51:10.559Z,100094.28
2022-12-08T13:58:28.461Z,100107.97
2022-12-08T14:01:14.787Z,100101.53
2022-12-08T14:04:37.648Z,100105.59
2022-12-08T14:07:02.571Z,100109.56
2022-12-08T14:09:34.944Z,100103.91
2022-12-08T14:12:21.862Z,100099.47
2022-12-08T14:15:06.747Z,100102.31
2022-12-08T14:17:33.559Z,100114.25
2022-12-08T14:20:01.294Z,100119.91
2022-12-08T14:22:38.888Z,100115.53
2022-12-08T14:25:08.018Z,100115.84
2022-12-08T14:27:36.979Z,100115.97
2022-12-08T14:30:15.853Z,100117.44
2022-12-08T14:32:58.586Z,100114.25
2022-12-08T14:35:26.964Z,100126.69
2022-12-08T14:38:12.865Z,100123.09
2022-12-08T14:40:44.353Z,100129.53
2022-12-08T14:43:10.753Z,100127.47
2022-12-08T14:45:40.211Z,100131.91
2022-12-08T14:48:25.819Z,100125.09
2022-12-08T14:50:57.228Z,100115.97
2022-12-08T14:53:24.825Z,100129.97
2022-12-08T14:55:51.926Z,100137.53
2022-12-08T14:58:24.002Z,100137.09
2022-12-08T15:00:54.401Z,100139.13
2022-12-08T15:03:23.232Z,100138.31
2022-12-08T15:05:59.657Z,100143.97
2022-12-08T15:08:26.457Z,100137.53
2022-12-08T15:11:12.496Z,100139.59
2022-12-08T15:13:46.781Z,100138.00
2022-12-08T15:16:37.820Z,100128.75
2022-12-08T15:19:28.295Z,100137.53
2022-12-08T15:21:58.142Z,100150.44
2022-12-08T15:24:28.268Z,100147.63
2022-12-08T15:26:55.077Z,100150.44
2022-12-08T15:29:29.601Z,100148.06
2022-12-08T15:31:59.677Z,100140.81
2022-12-08T15:34:26.142Z,100157.66
2022-12-08T15:36:54.333Z,100165.34
2022-12-08T15:39:32.960Z,100170.22
2022-12-08T15:42:00.168Z,100161.75
2022-12-08T15:44:27.031Z,100161.84
2022-12-08T15:46:53.876Z,100170.22
2022-12-08T15:49:23.171Z,100165.03
2022-12-08T15:51:53.573Z,100164.22
2022-12-08T15:54:23.052Z,100164.22
2022-12-08T15:57:17.860Z,100157.00
2022-12-08T15:59:38.910Z,100149.75
2022-12-08T16:02:05.367Z,100166.72
2022-12-08T16:07:23.338Z,100166.72
2022-12-08T16:09:49.985Z,100154.78
2022-12-08T16:13:48.074Z,100162.31
2022-12-08T16:15:51.802Z,100174.88
2022-12-08T16:18:27.450Z,100169.38
2022-12-08T16:23:43.565Z,100179.84
2022-12-08T16:27:01.205Z,100176.69
2022-12-08T16:29:06.760Z,100182.81
2022-12-08T16:31:33.793Z,100186.41
2022-12-08T16:34:00.487Z,100186.41
2022-12-08T16:36:26.952Z,100182.03
2022-12-08T16:38:53.403Z,100190.50
2022-12-08T16:41:38.772Z,100182.94
2022-12-08T16:44:06.225Z,100188.91
2022-12-08T16:46:33.622Z,100198.63
2022-12-08T16:49:00.170Z,100197.06
2022-12-08T16:51:27.553Z,100202.72
2022-12-08T16:53:55.389Z,100196.25
2022-12-08T16:56:27.508Z,100194.38
2022-12-08T16:58:57.067Z,100198.75
2022-12-08T17:01:23.792Z,100196.38
2022-12-08T17:04:14.420Z,100202.03
2022-12-08T17:06:36.737Z,100199.22
2022-12-08T17:09:03.305Z,100192.56
2022-12-08T17:11:37.432Z,100200.47
2022-12-08T17:14:05.713Z,100194.16
2022-12-08T17:16:32.230Z,100190.53
2022-12-08T17:18:58.690Z,100200.13
2022-12-08T17:21:25.134Z,100204.53
2022-12-08T17:23:51.635Z,100205.78
2022-12-08T17:26:18.075Z,100205.78
2022-12-08T17:29:00.050Z,100210.66
2022-12-08T17:31:29.903Z,100209.88
2022-12-08T17:34:05.469Z,100202.63
2022-12-08T17:36:32.038Z,100208.28
2022-12-08T17:39:00.366Z,100212.69
2022-12-08T17:41:27.397Z,100211.09
2022-12-08T17:43:54.625Z,100213.94
2022-12-08T17:46:22.254Z,100219.25
2022-12-08T17:48:49.237Z,100212.00
2022-12-08T17:51:15.834Z,100214.38
2022-12-08T17:53:42.375Z,100212.00
2022-12-08T17:56:18.324Z,100218.44
2022-12-08T17:58:45.626Z,100213.59
2022-12-08T18:01:13.945Z,100219.25
2022-12-08T18:03:40.354Z,100211.56
2022-12-08T18:06:12.282Z,100211.22
2022-12-08T18:08:39.810Z,100210.41
2022-12-08T18:11:12.165Z,100213.59
2022-12-08T18:13:38.602Z,100208.41
2022-12-08T18:16:05.097Z,100208.84
2022-12-08T18:18:31.547Z,100201.16
2022-12-08T18:20:58.200Z,100206.34
2022-12-08T18:23:24.656Z,100207.94
2022-12-08T18:25:51.203Z,100206.34
2022-12-08T18:28:17.685Z,100207.13
2022-12-08T18:30:44.282Z,100199.94
2022-12-08T18:33:11.189Z,100202.44
2022-12-08T18:35:39.414Z,100210.41
2022-12-08T18:38:05.946Z,100213.72
2022-12-08T18:40:32.468Z,100212.91
2022-12-08T18:42:59.204Z,100213.72
2022-12-08T18:45:25.675Z,100211.34
2022-12-08T18:47:52.368Z,100217.00
2022-12-08T18:50:19.117Z,100217.00
2022-12-08T18:52:46.956Z,100214.19
2022-12-08T18:55:14.663Z,100215.41
2022-12-08T18:57:43.201Z,100215.09
2022-12-08T19:00:15.547Z,100216.31
2022-12-08T19:02:43.463Z,100219.16
2022-12-08T19:05:12.242Z,100217.56
2022-12-08T19:07:39.528Z,100219.59
2022-12-08T19:10:07.517Z,100226.94
2022-12-08T19:12:36.892Z,100218.13
2022-12-08T19:15:10.433Z,100235.41
2022-12-08T19:17:54.088Z,100219.03
2022-12-08T19:20:21.816Z,100224.69
2022-12-08T19:22:48.337Z,100223.13
2022-12-08T19:25:14.909Z,100225.59
2022-12-08T19:27:41.847Z,100228.88
2022-12-08T19:30:10.794Z,100234.50
2022-12-08T19:32:37.371Z,100229.75
2022-12-08T19:35:07.274Z,100241.06
2022-12-08T19:37:35.189Z,100232.25
2022-12-08T19:40:20.622Z,100236.78
2022-12-08T19:43:05.403Z,100242.09
2022-12-08T19:45:35.154Z,100238.16
2022-12-08T19:48:01.837Z,100244.56
2022-12-08T19:50:37.675Z,100244.69
2022-12-08T19:53:13.352Z,100242.31
2022-12-08T19:55:40.598Z,100247.19
2022-12-08T19:58:08.023Z,100251.25
2022-12-08T20:00:35.884Z,100258.94
2022-12-08T20:03:03.831Z,100253.75
2022-12-08T20:05:31.980Z,100252.25
2022-12-08T20:07:58.570Z,100251.91
2022-12-08T20:10:36.575Z,100252.34
2022-12-08T20:13:23.289Z,100250.00
2022-12-08T20:15:50.390Z,100250.91
2022-12-08T20:18:17.964Z,100249.31
2022-12-08T20:20:46.253Z,100252.91
2022-12-08T20:23:13.904Z,100252.56
2022-12-08T20:25:42.810Z,100255.50
2022-12-08T20:28:09.995Z,100251.88
2022-12-08T20:30:41.371Z,100258.34
2022-12-08T20:33:07.976Z,100250.31
2022-12-08T20:35:34.798Z,100256.41
2022-12-08T20:38:01.385Z,100254.38
2022-12-08T20:40:28.102Z,100268.59
2022-12-08T20:42:54.660Z,100263.28
2022-12-08T20:45:21.310Z,100265.06
2022-12-08T20:47:47.941Z,100256.53
2022-12-08T20:50:14.716Z,100271.88
2022-12-08T20:52:41.264Z,100269.03
2022-12-08T20:55:08.570Z,100266.66
2022-12-08T20:57:35.265Z,100276.72
2022-12-08T21:00:02.042Z,100285.19
2022-12-08T21:02:28.874Z,100286.09
2022-12-08T21:04:55.972Z,100288.47
2022-12-08T21:07:22.537Z,100286.88
2022-12-08T21:09:49.161Z,100279.63
2022-12-08T21:12:15.902Z,100274.44
2022-12-08T21:14:42.700Z,100283.72
2022-12-08T21:17:09.401Z,100282.91
2022-12-08T21:19:36.874Z,100292.97
2022-12-08T21:22:03.812Z,100290.13
2022-12-08T21:24:33.985Z,100283.81
2022-12-08T21:27:01.534Z,100297.50
2022-12-08T21:29:28.076Z,100291.03
2022-12-08T21:31:57.321Z,100289.09
2022-12-08T21:34:25.177Z,100283.00
2022-12-08T21:36:52.865Z,100283.56
2022-12-08T21:39:20.756Z,100287.53
2022-12-08T21:42:07.373Z,100279.06
2022-12-08T21:44:38.459Z,100276.00
2022-12-08T21:47:08.515Z,100280.84
2022-12-08T21:49:37.386Z,100276.00
2022-12-08T21:52:07.269Z,100277.69
2022-12-08T21:54:38.447Z,100287.06
2022-12-08T21:57:08.068Z,100285.00
2022-12-08T21:59:38.431Z,100282.63
2022-12-08T22:02:11.280Z,100283.53
2022-12-08T22:04:43.677Z,100276.28
2022-12-08T22:07:13.780Z,100286.78
2022-12-08T22:09:43.839Z,100282.03
2022-12-08T22:12:13.916Z,100277.66
2022-12-08T22:14:45.061Z,100273.25
2022-12-08T22:17:15.566Z,100282.16
2022-12-08T22:19:45.985Z,100287.47
2022-12-08T22:22:16.572Z,100296.69
2022-12-08T22:24:47.138Z,100303.22
2022-12-08T22:27:17.354Z,100303.22
2022-12-08T22:29:49.455Z,100310.47
2022-12-08T22:32:18.864Z,100300.50
2022-12-08T22:34:49.913Z,100291.59
2022-12-08T22:37:18.757Z,100298.47
2022-12-08T22:39:49.517Z,100300.97
2022-12-08T22:42:21.117Z,100301.41
2022-12-08T22:44:48.833Z,100299.03
2022-12-08T22:47:15.525Z,100305.00
2022-12-08T22:49:42.224Z,100303.88
2022-12-08T22:52:09.088Z,100307.03
2022-12-08T22:54:35.837Z,100309.84
2022-12-08T22:57:02.384Z,100309.84
2022-12-08T22:59:29.393Z,100311.91
2022-12-08T23:01:55.985Z,100305.09
2022-12-08T23:04:22.607Z,100302.28
2022-12-08T23:06:49.329Z,100301.84
2022-12-08T23:09:16.033Z,100297.09
2022-12-08T23:11:44.183Z,100314.00
2022-12-08T23:14:11.244Z,100301.94
2022-12-08T23:16:38.262Z,100308.38
2022-12-08T23:19:05.015Z,100309.97
2022-12-08T23:21:31.769Z,100300.34
2022-12-08T23:24:00.920Z,100301.94
2022-12-08T23:26:30.401Z,100301.94
2022-12-08T23:28:57.333Z,100301.94
2022-12-08T23:31:25.642Z,100299.13
2022-12-08T23:33:53.362Z,100289.84
2022-12-08T23:36:21.985Z,100304.75
2022-12-08T23:38:49.231Z,100294.72
2022-12-08T23:41:16.596Z,100294.72
2022-12-08T23:43:48.830Z,100307.22
2022-12-08T23:46:17.248Z,100321.69
2022-12-08T23:48:44.654Z,100305.66
2022-12-08T23:51:11.658Z,100302.84
2022-12-08T23:53:39.032Z,100308.47
2022-12-08T23:56:08.223Z,100315.69
2022-12-08T23:58:35.613Z,100319.75
